»·PEaware :: N433YE KSMO-KSBP

N433YE :: KSMO-KSBP

FLIGHT INFORMATION

Flight Status: Arrived
Operator: Privately registered:
United States
More flights under this callsign
Pilot: Jeremy H. (10741)
Aircraft: Unknown
(DA62)
More flights by this aircraft type
Origin: KSMO Santa Monica Mun
United States
Destination: KSBP San Luis Co Regl
United States
More flights between these airports :: More routes between these airports
Route: VTU RZS MQO
File this flight plan on PilotEdge
Remarks:
Altitude:
(Current/Filed)
6,000ft
Speed:
(Current/Filed)
181kts
Departed: 05-Aug-18 07:16 AM
Arrived: 05-Aug-18 08:08 AM
Distance/Time
Traveled:
131nm/0:51
Distance/Time
To Go:
Arrived

Flight Plot

Page will automatically refresh every two minutes.


Map Options




Map Legend


Flown Route
Filed Route
Departure Airport
Arrival Airport
Navaid (VOR, NDB)
Fix

Horizontal Profiles

Position Reports

Time Latitude Longitude Heading Altitude Ground
Speed
05-Aug-18 07:04 34.014632 -118.454380 134 133ft 0kts
05-Aug-18 07:05 34.014632 -118.454380 134 133ft 0kts
05-Aug-18 07:06 34.014632 -118.454380 134 133ft 0kts
05-Aug-18 07:07 34.014632 -118.454380 134 133ft 0kts
05-Aug-18 07:08 34.014632 -118.454380 134 133ft 0kts
05-Aug-18 07:09 34.014632 -118.454380 134 133ft 0kts
05-Aug-18 07:10 34.014632 -118.454380 134 133ft 0kts
05-Aug-18 07:11 34.014632 -118.454380 134 133ft 0kts
05-Aug-18 07:12 34.014632 -118.454380 134 133ft 0kts
05-Aug-18 07:13 34.014567 -118.454294 128 133ft 8kts
05-Aug-18 07:14 34.016683 -118.451434 43 142ft 11kts
05-Aug-18 07:15 34.019229 -118.448409 43 158ft 12kts
05-Aug-18 07:16 34.018982 -118.447581 222 159ft 10kts
05-Aug-18 07:17 34.006105 -118.462339 223 737ft 95kts
05-Aug-18 07:18 33.991580 -118.485804 260 2245ft 90kts
05-Aug-18 07:19 33.989434 -118.515752 287 3686ft 91kts
05-Aug-18 07:20 33.997002 -118.544792 288 5124ft 92kts
05-Aug-18 07:21 34.005136 -118.577565 288 6038ft 136kts
05-Aug-18 07:22 34.017480 -118.629219 287 6021ft 172kts
05-Aug-18 07:23 34.030336 -118.683962 286 6019ft 175kts
05-Aug-18 07:24 34.041345 -118.731056 286 6019ft 175kts
05-Aug-18 07:25 34.056554 -118.796292 286 6019ft 175kts
05-Aug-18 07:26 34.069391 -118.851813 286 5992ft 175kts
05-Aug-18 07:27 34.079941 -118.897663 286 5991ft 174kts
05-Aug-18 07:28 34.094937 -118.962503 286 5992ft 174kts
05-Aug-18 07:29 34.107662 -119.017598 286 5992ft 173kts
05-Aug-18 07:30 34.121787 -119.061698 303 5993ft 172kts
05-Aug-18 07:31 34.148102 -119.109467 304 5993ft 172kts
05-Aug-18 07:32 34.178946 -119.165454 304 5993ft 173kts
05-Aug-18 07:33 34.200880 -119.205369 304 5993ft 173kts
05-Aug-18 07:34 34.227459 -119.253702 304 5992ft 173kts
05-Aug-18 07:35 34.253906 -119.301887 304 5991ft 174kts
05-Aug-18 07:36 34.280463 -119.350343 304 5990ft 174kts
05-Aug-18 07:37 34.306973 -119.398780 304 5989ft 174kts
05-Aug-18 07:38 34.333692 -119.447558 304 5987ft 174kts
05-Aug-18 07:39 34.360243 -119.496129 304 5985ft 173kts
05-Aug-18 07:40 34.386869 -119.544970 304 5982ft 173kts
05-Aug-18 07:41 34.413394 -119.593700 304 5981ft 173kts
05-Aug-18 07:42 34.439918 -119.642496 304 5981ft 173kts
05-Aug-18 07:43 34.466293 -119.691084 304 5982ft 173kts
05-Aug-18 07:44 34.492802 -119.739984 304 5982ft 173kts
05-Aug-18 07:45 34.521564 -119.786663 313 5985ft 173kts
05-Aug-18 07:46 34.554155 -119.829497 313 5995ft 172kts
05-Aug-18 07:47 34.586705 -119.872305 313 6006ft 172kts
05-Aug-18 07:48 34.619193 -119.915083 313 5995ft 173kts
05-Aug-18 07:49 34.651858 -119.958147 313 5998ft 173kts
05-Aug-18 07:50 34.684403 -120.001029 314 6007ft 172kts
05-Aug-18 07:51 34.719166 -120.041341 317 6009ft 172kts
05-Aug-18 07:52 34.753948 -120.081384 317 6008ft 173kts
05-Aug-18 07:53 34.788829 -120.121564 317 6005ft 173kts
05-Aug-18 07:54 34.823762 -120.161850 317 6001ft 173kts
05-Aug-18 07:55 34.858615 -120.202093 317 5996ft 173kts
05-Aug-18 07:56 34.893540 -120.242485 317 5990ft 173kts
05-Aug-18 07:57 34.927757 -120.282106 317 5642ft 154kts
05-Aug-18 07:58 34.956328 -120.315247 317 4620ft 144kts
05-Aug-18 07:59 34.984350 -120.347771 317 3986ft 127kts
05-Aug-18 08:00 35.012168 -120.380051 317 4008ft 141kts
05-Aug-18 08:01 35.041144 -120.413730 317 4025ft 153kts
05-Aug-18 08:02 35.074376 -120.452360 316 4016ft 171kts
05-Aug-18 08:03 35.108616 -120.492222 316 3888ft 159kts
05-Aug-18 08:04 35.135453 -120.523565 316 2975ft 121kts
05-Aug-18 08:05 35.159109 -120.551198 316 1964ft 117kts
05-Aug-18 08:06 35.182804 -120.578872 315 1443ft 107kts
05-Aug-18 08:07 35.206610 -120.603654 328 1352ft 101kts
05-Aug-18 08:08 35.226605 -120.622232 306 542ft 88kts
05-Aug-18 08:09 35.237233 -120.639947 1 191ft 0kts
05-Aug-18 08:10 35.238839 -120.641981 303 183ft 18kts
05-Aug-18 08:11 35.239470 -120.642316 247 182ft 0kts
05-Aug-18 08:12 35.239470 -120.642316 247 182ft 0kts
05-Aug-18 08:13 35.239470 -120.642316 247 182ft 0kts
05-Aug-18 08:14 35.239470 -120.642316 247 182ft 0kts
05-Aug-18 08:15 35.239470 -120.642316 247 182ft 0kts
05-Aug-18 08:16 35.239470 -120.642316 247 182ft 0kts
05-Aug-18 08:17 35.239470 -120.642316 247 182ft 0kts
05-Aug-18 08:18 35.239470 -120.642316 247 182ft 0kts
05-Aug-18 08:19 35.239470 -120.642316 247 182ft 0kts
05-Aug-18 08:20 35.239470 -120.642316 247 182ft 0kts
05-Aug-18 08:21 35.239470 -120.642316 247 182ft 0kts
05-Aug-18 08:22 35.239470 -120.642316 247 182ft 0kts
05-Aug-18 08:23 35.239470 -120.642316 247 182ft 0kts

Navigation Log

Ident Type
Flight plan parsing failed, navigation log unavailable